Time;durP1;ratioP1;P1;durP2;ratioP2;P2;SDS_P1;SDS_P2;PMS_P1;PMS_P2;Temp;Humidity;BMP_temperature;BMP_pressure;BME280_temperature;BME280_humidity;BME280_pressure;Samples;Min_cycle;Max_cycle;Signal;HPM_P1;HPM_P2
2021/12/31 00:02:09;;;;;;;3.13;2.83;;;6.10;99.90;;;;;;10462604;28;20231;-84
2021/12/31 00:07:31;;;;;;;3.17;2.87;;;6.10;99.90;;;;;;10462951;28;20198;-83
2021/12/31 00:12:56;;;;;;;3.37;3.07;;;6.10;99.90;;;;;;10462920;28;20229;-84
2021/12/31 00:18:18;;;;;;;3.10;2.80;;;6.10;99.90;;;;;;10476675;28;20200;-84
2021/12/31 00:23:42;;;;;;;4.97;3.37;;;6.10;99.90;;;;;;10476215;28;20238;-83
2021/12/31 00:29:05;;;;;;;3.57;3.27;;;6.10;99.90;;;;;;10482094;28;20191;-82
2021/12/31 00:34:27;;;;;;;3.60;3.30;;;6.10;99.90;;;;;;10518331;28;20568;-84
2021/12/31 00:39:49;;;;;;;3.43;3.13;;;6.10;99.90;;;;;;10466271;28;20243;-81
2021/12/31 00:45:14;;;;;;;3.40;3.10;;;6.10;99.90;;;;;;10441649;28;20510;-84
2021/12/31 00:50:37;;;;;;;2.93;2.63;;;6.10;99.90;;;;;;10441635;28;20542;-83
2021/12/31 00:55:59;;;;;;;3.10;2.80;;;6.10;99.90;;;;;;10441724;28;20502;-84
2021/12/31 01:01:22;;;;;;;3.43;2.73;;;6.10;99.90;;;;;;10427300;28;20309;-83
2021/12/31 01:06:44;;;;;;;4.20;3.00;;;6.20;99.90;;;;;;10448779;28;20210;-84
2021/12/31 01:12:09;;;;;;;3.70;3.30;;;6.10;99.90;;;;;;10482070;28;20358;-80
2021/12/31 01:23:08;;;;;;;4.37;2.43;;;6.10;99.90;;;;;;10483099;28;20548;-82
2021/12/31 01:28:30;;;;;;;2.53;2.17;;;6.10;99.90;;;;;;10467974;28;20497;-83
2021/12/31 01:33:52;;;;;;;2.43;2.23;;;6.20;99.90;;;;;;10454232;28;20204;-83
2021/12/31 01:39:14;;;;;;;2.97;2.40;;;6.30;99.90;;;;;;10452554;28;20206;-83
2021/12/31 01:44:42;;;;;;;2.03;1.70;;;6.50;99.90;;;;;;10480990;28;20199;-84
2021/12/31 01:50:06;;;;;;;2.47;2.20;;;6.50;99.90;;;;;;10480776;28;20231;-84
2021/12/31 01:55:33;;;;;;;2.57;2.20;;;6.70;99.90;;;;;;10466682;28;20210;-84
2021/12/31 02:00:55;;;;;;;2.40;2.20;;;6.70;99.90;;;;;;10480194;28;20227;-84
2021/12/31 02:06:18;;;;;;;2.10;1.90;;;6.90;99.90;;;;;;10466146;28;20194;-82
2021/12/31 02:11:40;;;;;;;2.47;2.27;;;7.00;99.90;;;;;;10465784;28;20512;-84
2021/12/31 02:17:07;;;;;;;3.13;2.40;;;6.90;99.90;;;;;;10480531;28;20200;-80
2021/12/31 02:22:29;;;;;;;2.27;2.07;;;6.90;99.90;;;;;;10465177;28;20467;-80
2021/12/31 02:27:51;;;;;;;2.23;1.87;;;6.90;99.90;;;;;;10464682;28;20216;-80
2021/12/31 02:33:13;;;;;;;1.67;1.57;;;6.90;99.90;;;;;;10426476;28;20314;-80
2021/12/31 02:38:35;;;;;;;1.90;1.70;;;7.10;99.90;;;;;;10445743;28;20199;-80
2021/12/31 02:43:57;;;;;;;1.30;1.20;;;7.30;99.90;;;;;;10450466;28;20237;-81
2021/12/31 02:49:23;;;;;;;2.07;1.50;;;7.40;99.90;;;;;;10479145;28;20224;-80
2021/12/31 02:54:48;;;;;;;1.77;1.40;;;7.40;99.90;;;;;;10464273;28;20196;-84
2021/12/31 03:00:11;;;;;;;1.30;1.20;;;7.40;99.90;;;;;;10478647;28;20543;-81
2021/12/31 03:05:37;;;;;;;1.70;1.60;;;7.50;99.90;;;;;;10450541;28;20196;-80
2021/12/31 03:11:02;;;;;;;3.10;1.50;;;7.60;99.90;;;;;;10421948;28;20248;-79
2021/12/31 03:16:24;;;;;;;1.33;1.23;;;7.50;99.90;;;;;;10446551;28;20231;-80
2021/12/31 03:21:46;;;;;;;1.80;1.40;;;7.60;99.90;;;;;;10477001;28;20228;-80
2021/12/31 03:27:08;;;;;;;2.43;1.67;;;7.60;99.90;;;;;;10462965;28;20428;-80
2021/12/31 03:32:30;;;;;;;1.73;1.50;;;7.60;99.90;;;;;;10458657;28;20206;-81
2021/12/31 03:37:54;;;;;;;1.37;1.17;;;7.60;99.90;;;;;;10436260;28;20216;-80
2021/12/31 03:43:16;;;;;;;1.17;1.10;;;7.60;99.90;;;;;;10477835;28;20224;-79
2021/12/31 03:48:37;;;;;;;1.77;1.20;;;7.70;99.90;;;;;;10462643;28;20228;-81
2021/12/31 03:53:59;;;;;;;1.93;1.13;;;7.80;99.90;;;;;;10462681;28;20197;-80
2021/12/31 03:59:21;;;;;;;1.00;0.90;;;7.80;99.90;;;;;;10476737;28;20267;-79
2021/12/31 04:04:43;;;;;;;1.43;1.23;;;7.80;99.90;;;;;;10469054;28;20217;-82
2021/12/31 04:10:06;;;;;;;1.40;1.17;;;7.90;99.90;;;;;;10456716;28;20194;-80
2021/12/31 04:15:28;;;;;;;1.17;1.10;;;7.90;99.90;;;;;;10445662;28;20242;-79
2021/12/31 04:20:50;;;;;;;1.53;1.03;;;7.90;99.90;;;;;;10469908;28;20461;-79
2021/12/31 04:26:14;;;;;;;0.90;0.80;;;7.90;99.90;;;;;;10484511;28;20197;-79
2021/12/31 04:31:36;;;;;;;0.80;0.80;;;7.90;99.90;;;;;;10469229;28;20268;-81
2021/12/31 04:36:58;;;;;;;1.07;0.90;;;7.90;99.90;;;;;;10468811;28;20205;-79
2021/12/31 04:42:20;;;;;;;0.83;0.77;;;8.00;99.90;;;;;;10469303;28;20589;-81
2021/12/31 04:47:42;;;;;;;1.00;1.00;;;8.00;99.90;;;;;;10482606;28;20247;-81
2021/12/31 04:53:05;;;;;;;0.87;0.87;;;8.10;99.90;;;;;;10468635;28;20198;-81
2021/12/31 04:58:27;;;;;;;1.50;1.30;;;8.10;99.90;;;;;;10468666;28;20197;-83
2021/12/31 05:03:49;;;;;;;2.23;1.80;;;;;;;;;;10468499;28;20467;-81
2021/12/31 05:09:11;;;;;;;2.03;1.80;;;8.10;99.90;;;;;;10463626;28;20191;-80
2021/12/31 05:14:33;;;;;;;2.33;1.93;;;8.10;99.90;;;;;;10481887;28;20224;-81
2021/12/31 05:19:55;;;;;;;2.60;2.00;;;8.10;99.90;;;;;;10481563;28;20219;-81
2021/12/31 05:25:17;;;;;;;1.70;1.60;;;8.10;99.90;;;;;;10467636;28;20216;-85
2021/12/31 05:30:40;;;;;;;1.53;1.43;;;8.10;99.90;;;;;;10478750;28;20197;-85
2021/12/31 05:36:01;;;;;;;1.80;1.30;;;8.10;99.90;;;;;;10440826;28;20211;-84
2021/12/31 05:41:23;;;;;;;1.90;1.70;;;8.20;99.90;;;;;;10440131;28;20224;-85
2021/12/31 05:46:48;;;;;;;1.90;1.70;;;8.10;99.90;;;;;;10439912;28;20275;-85
2021/12/31 05:52:10;;;;;;;1.97;1.50;;;8.20;99.90;;;;;;10439574;28;20236;-85
2021/12/31 05:57:32;;;;;;;1.27;1.00;;;8.20;99.90;;;;;;10425539;28;20273;-84
2021/12/31 06:02:56;;;;;;;1.60;1.50;;;8.20;99.90;;;;;;10439317;28;20552;-85
2021/12/31 06:08:18;;;;;;;1.23;1.13;;;8.20;99.90;;;;;;10448209;28;20484;-84
2021/12/31 06:13:40;;;;;;;1.23;1.13;;;8.20;99.90;;;;;;10466135;28;20397;-85
2021/12/31 06:19:06;;;;;;;1.50;1.40;;;8.20;99.90;;;;;;10479321;28;20210;-85
2021/12/31 06:24:28;;;;;;;2.27;1.50;;;8.20;99.90;;;;;;10465250;28;20256;-85
2021/12/31 06:29:50;;;;;;;1.37;1.23;;;8.20;99.90;;;;;;10465317;28;20196;-84
2021/12/31 06:35:12;;;;;;;2.93;2.33;;;8.20;99.90;;;;;;10437605;28;20372;-84
2021/12/31 06:40:36;;;;;;;12.60;9.90;;;8.10;99.90;;;;;;10437588;28;20293;-85
2021/12/31 06:45:58;;;;;;;15.70;12.83;;;8.10;99.90;;;;;;10437625;28;20203;-85
2021/12/31 06:51:20;;;;;;;11.43;10.30;;;8.20;99.90;;;;;;10437026;28;20237;-83
2021/12/31 06:56:43;;;;;;;8.90;8.00;;;8.10;99.90;;;;;;10423420;28;20212;-84
2021/12/31 07:02:06;;;;;;;9.73;8.73;;;8.00;99.90;;;;;;10453340;28;20229;-84
2021/12/31 07:07:28;;;;;;;11.17;10.00;;;8.00;99.90;;;;;;10456639;28;20374;-84
2021/12/31 07:12:55;;;;;;;9.87;7.40;;;7.90;99.90;;;;;;10464193;28;20217;-84
2021/12/31 07:18:19;;;;;;;9.60;7.87;;;7.90;99.90;;;;;;10477773;28;20204;-84
2021/12/31 07:23:41;;;;;;;13.77;9.60;;;7.80;99.90;;;;;;10463919;28;20233;-82
2021/12/31 07:29:03;;;;;;;14.50;10.23;;;7.80;99.90;;;;;;10477791;28;20500;-84
2021/12/31 07:34:26;;;;;;;15.00;11.47;;;7.80;99.90;;;;;;10450228;28;20208;-84
2021/12/31 07:39:53;;;;;;;17.07;11.07;;;7.70;99.90;;;;;;10466703;28;20390;-84
2021/12/31 07:45:18;;;;;;;15.77;11.87;;;7.70;99.90;;;;;;10486052;28;20266;-84
2021/12/31 07:50:41;;;;;;;26.63;15.47;;;7.80;99.90;;;;;;10485171;28;20231;-80
2021/12/31 07:56:04;;;;;;;26.10;15.77;;;7.80;99.90;;;;;;10485032;28;20188;-81
2021/12/31 08:01:25;;;;;;;23.57;17.07;;;7.80;99.90;;;;;;10484096;28;20234;-81
2021/12/31 08:06:48;;;;;;;18.40;14.70;;;7.80;99.90;;;;;;10484755;28;20380;-84
2021/12/31 08:12:10;;;;;;;22.97;16.73;;;7.90;99.90;;;;;;10457187;28;20231;-84
2021/12/31 08:17:33;;;;;;;20.80;13.57;;;7.90;99.90;;;;;;10471385;28;20207;-84
2021/12/31 08:23:04;;;;;;;27.10;16.67;;;7.90;99.90;;;;;;10487360;28;20236;-84
2021/12/31 08:28:26;;;;;;;51.40;28.93;;;7.90;99.90;;;;;;10483772;28;20209;-82
2021/12/31 08:33:48;;;;;;;37.37;23.00;;;7.90;99.90;;;;;;10469741;28;20603;-84
2021/12/31 08:39:11;;;;;;;30.67;20.37;;;7.90;99.90;;;;;;10483190;28;20530;-84
2021/12/31 08:44:33;;;;;;;24.27;16.53;;;7.90;99.90;;;;;;10483286;28;20233;-85
2021/12/31 08:49:56;;;;;;;22.53;17.03;;;8.00;99.90;;;;;;10430135;28;20273;-84
2021/12/31 08:55:18;;;;;;;28.67;19.37;;;8.00;99.90;;;;;;10454496;28;20198;-85
2021/12/31 09:00:40;;;;;;;24.00;17.60;;;8.00;99.90;;;;;;10461653;28;20212;-82
2021/12/31 09:06:02;;;;;;;13.80;10.97;;;8.10;99.90;;;;;;10451731;28;20208;-79
2021/12/31 09:11:26;;;;;;;24.80;21.03;;;8.10;99.90;;;;;;10457439;28;20202;-82
2021/12/31 09:16:48;;;;;;;25.67;22.97;;;8.20;99.90;;;;;;10461322;28;20189;-82
2021/12/31 09:22:11;;;;;;;26.63;18.67;;;8.20;99.90;;;;;;10464301;28;20225;-81
2021/12/31 09:27:33;;;;;;;17.00;14.93;;;8.20;99.90;;;;;;10461593;28;20284;-80
2021/12/31 09:32:55;;;;;;;46.97;19.37;;;8.30;99.90;;;;;;10466270;28;20205;-80
2021/12/31 09:38:17;;;;;;;37.97;21.00;;;8.30;99.90;;;;;;10448828;28;20196;-79
2021/12/31 09:43:39;;;;;;;32.17;17.57;;;8.30;99.90;;;;;;10470458;28;20244;-82
2021/12/31 09:49:02;;;;;;;30.70;18.37;;;8.30;99.90;;;;;;10461917;28;20243;-81
2021/12/31 09:54:25;;;;;;;26.40;16.13;;;8.40;99.90;;;;;;10453290;28;20203;-81
2021/12/31 09:59:48;;;;;;;20.00;15.23;;;8.40;99.90;;;;;;10442016;28;21278;-82
2021/12/31 10:05:12;;;;;;;41.80;17.40;;;8.40;99.90;;;;;;10461234;28;20229;-81
2021/12/31 10:10:34;;;;;;;31.60;14.70;;;8.50;99.90;;;;;;10448779;28;20212;-82
2021/12/31 10:15:57;;;;;;;23.77;14.97;;;8.60;99.90;;;;;;10457261;28;20203;-82
2021/12/31 10:21:20;;;;;;;9.10;5.77;;;;;;;;;;10447516;28;20237;-80
2021/12/31 10:26:42;;;;;;;2.87;2.53;;;8.70;99.90;;;;;;10468200;28;20198;-81
2021/12/31 10:32:15;;;;;;;3.57;2.77;;;8.70;99.90;;;;;;10468951;28;20209;-81
2021/12/31 10:37:53;;;;;;;17.43;3.67;;;8.70;99.90;;;;;;10453410;28;20263;-81
2021/12/31 10:43:22;;;;;;;4.07;2.70;;;8.90;99.90;;;;;;10452734;28;20280;-82
2021/12/31 10:48:50;;;;;;;3.93;1.77;;;;;;;;;;10473403;28;20313;-81
2021/12/31 10:54:30;;;;;;;2.60;1.40;;;9.00;99.90;;;;;;10455914;28;20199;-82
2021/12/31 10:59:52;;;;;;;5.70;1.40;;;9.20;99.90;;;;;;10453851;28;20543;-82
2021/12/31 11:05:26;;;;;;;35.40;4.37;;;9.30;99.90;;;;;;10439410;28;20500;-82
2021/12/31 11:10:50;;;;;;;1.53;1.20;;;9.50;99.90;;;;;;10444574;28;20555;-82
2021/12/31 11:16:14;;;;;;;3.07;2.00;;;9.40;99.90;;;;;;10443111;28;20202;-81
2021/12/31 11:21:38;;;;;;;4.10;1.93;;;9.50;99.90;;;;;;10444464;28;20225;-82
2021/12/31 11:27:26;;;;;;;3.93;2.00;;;9.50;99.90;;;;;;10449552;28;20217;-81
2021/12/31 11:32:48;;;;;;;5.10;2.70;;;9.50;99.90;;;;;;10439376;28;20202;-82
2021/12/31 11:38:44;;;;;;;2.50;2.07;;;9.60;99.90;;;;;;10444285;28;20206;-81
2021/12/31 11:44:10;;;;;;;6.77;2.17;;;9.70;99.90;;;;;;10454978;28;20271;-81
2021/12/31 11:49:32;;;;;;;1.93;1.20;;;9.70;99.90;;;;;;10452673;28;20237;-81
2021/12/31 11:55:20;;;;;;;1.93;1.40;;;9.70;99.90;;;;;;10433414;28;20213;-81
2021/12/31 12:00:42;;;;;;;1.80;1.47;;;9.70;99.90;;;;;;10435474;28;20191;-80
2021/12/31 12:06:06;;;;;;;3.77;2.10;;;9.70;99.90;;;;;;10444878;28;20202;-81
2021/12/31 12:12:03;;;;;;;4.50;3.07;;;9.70;99.90;;;;;;10452608;28;20198;-81
2021/12/31 12:17:28;;;;;;;16.43;6.30;;;9.80;99.90;;;;;;10433726;28;20218;-81
2021/12/31 12:22:54;;;;;;;12.47;4.73;;;9.80;99.90;;;;;;10463227;28;20229;-82
2021/12/31 12:28:19;;;;;;;6.57;3.93;;;9.80;99.90;;;;;;10459386;28;20195;-84
2021/12/31 12:33:42;;;;;;;3.53;2.70;;;9.80;99.90;;;;;;10431389;28;20210;-82
2021/12/31 12:39:05;;;;;;;2.50;1.70;;;9.80;99.90;;;;;;10464597;28;20217;-80
2021/12/31 12:44:28;;;;;;;2.93;1.77;;;9.80;99.90;;;;;;10463312;28;20225;-79
2021/12/31 12:49:57;;;;;;;2.20;1.50;;;9.80;99.90;;;;;;10459011;28;20250;-81
2021/12/31 12:55:19;;;;;;;28.27;5.97;;;9.80;99.90;;;;;;10441177;28;20199;-86
2021/12/31 13:00:41;;;;;;;4.90;1.70;;;10.00;99.90;;;;;;10460160;28;20379;-84
2021/12/31 13:06:07;;;;;;;2.43;2.17;;;10.10;99.90;;;;;;10439779;28;20523;-84
2021/12/31 13:11:32;;;;;;;2.63;1.80;;;10.10;99.90;;;;;;10425820;28;20202;-83
2021/12/31 13:16:59;;;;;;;2.10;1.40;;;10.00;99.90;;;;;;10438923;28;20219;-83
2021/12/31 13:22:32;;;;;;;3.60;1.70;;;10.00;99.90;;;;;;10467404;28;20593;-82
2021/12/31 13:28:13;;;;;;;2.20;1.73;;;10.00;99.90;;;;;;10449878;28;20211;-83
2021/12/31 13:33:47;;;;;;;1.87;1.17;;;9.90;99.90;;;;;;10459988;28;20209;-82
2021/12/31 13:39:40;;;;;;;2.40;0.90;;;10.00;99.90;;;;;;10464646;28;20221;-83
2021/12/31 13:45:04;;;;;;;3.00;1.00;;;10.00;99.90;;;;;;10480790;28;20294;-82
2021/12/31 13:50:31;;;;;;;6.40;2.70;;;10.00;99.90;;;;;;10479656;28;20234;-82
2021/12/31 13:55:53;;;;;;;3.77;1.87;;;10.00;99.90;;;;;;10466360;28;20203;-82
2021/12/31 14:01:21;;;;;;;3.97;1.70;;;10.00;99.90;;;;;;10465863;28;20212;-83
2021/12/31 14:06:43;;;;;;;2.07;1.70;;;10.00;99.90;;;;;;10465674;28;20201;-82
2021/12/31 14:12:06;;;;;;;4.00;1.83;;;10.00;99.90;;;;;;10465934;28;20202;-82
2021/12/31 14:17:28;;;;;;;2.93;2.30;;;10.10;99.90;;;;;;10465298;28;20225;-83
2021/12/31 14:22:50;;;;;;;3.07;2.50;;;10.00;99.90;;;;;;10465194;28;20249;-83
2021/12/31 14:28:13;;;;;;;3.40;2.30;;;10.10;99.90;;;;;;10465078;28;20199;-83
2021/12/31 14:33:37;;;;;;;3.07;2.13;;;10.00;99.90;;;;;;10464710;28;20203;-83
2021/12/31 14:39:26;;;;;;;3.97;2.47;;;10.10;99.90;;;;;;10353321;28;20204;-83
2021/12/31 14:44:48;;;;;;;3.33;2.73;;;10.00;99.90;;;;;;10352743;28;20283;-83
2021/12/31 14:50:14;;;;;;;7.20;4.43;;;10.00;99.90;;;;;;10318175;28;20237;-82
2021/12/31 14:55:36;;;;;;;2.37;1.93;;;10.00;99.90;;;;;;10312624;28;20209;-82
2021/12/31 15:00:58;;;;;;;2.37;2.00;;;10.00;99.90;;;;;;10300513;28;20209;-82
2021/12/31 15:06:21;;;;;;;1.80;1.60;;;10.10;99.90;;;;;;10335978;28;20209;-82
2021/12/31 15:11:43;;;;;;;1.60;1.50;;;10.10;99.90;;;;;;10338549;28;20204;-83
2021/12/31 15:17:06;;;;;;;2.87;1.60;;;10.10;99.90;;;;;;10461087;28;20236;-82
2021/12/31 15:22:28;;;;;;;2.50;2.03;;;10.00;99.90;;;;;;10477169;28;20533;-82
2021/12/31 15:27:49;;;;;;;3.83;2.80;;;10.00;99.90;;;;;;10463767;28;20190;-83
2021/12/31 15:33:11;;;;;;;3.93;2.33;;;10.00;99.90;;;;;;10461933;28;20205;-82
2021/12/31 15:38:35;;;;;;;4.97;3.00;;;10.00;99.90;;;;;;10463081;28;20437;-83
2021/12/31 15:43:57;;;;;;;4.17;2.53;;;10.00;99.90;;;;;;10476539;28;20226;-83
2021/12/31 15:49:19;;;;;;;5.30;2.37;;;9.90;99.90;;;;;;10448216;28;20257;-83
2021/12/31 15:54:41;;;;;;;2.17;1.63;;;9.90;99.90;;;;;;10421508;28;20211;-83
2021/12/31 16:00:05;;;;;;;5.03;4.37;;;10.00;99.90;;;;;;10426800;28;20198;-82
2021/12/31 16:05:33;;;;;;;2.90;2.20;;;10.00;99.90;;;;;;10443560;28;20480;-83
2021/12/31 16:10:55;;;;;;;2.20;1.90;;;10.00;99.90;;;;;;10463549;28;20193;-83
2021/12/31 16:16:17;;;;;;;2.33;1.40;;;10.10;99.90;;;;;;10484045;28;20202;-80
2021/12/31 16:21:40;;;;;;;2.20;1.10;;;10.10;99.90;;;;;;10483786;28;20422;-81
2021/12/31 16:27:02;;;;;;;5.37;4.23;;;10.10;99.90;;;;;;10482946;28;20209;-81
2021/12/31 16:32:27;;;;;;;9.93;6.80;;;10.10;99.90;;;;;;10451782;28;20208;-83
2021/12/31 16:37:49;;;;;;;3.30;3.00;;;10.00;99.90;;;;;;10428385;28;20253;-81
2021/12/31 16:43:11;;;;;;;17.60;13.03;;;10.00;99.90;;;;;;10427566;28;20226;-82
2021/12/31 16:48:33;;;;;;;21.73;13.10;;;10.00;99.90;;;;;;10435252;28;20407;-82
2021/12/31 16:53:57;;;;;;;13.37;10.60;;;10.00;99.90;;;;;;10468942;28;20222;-82
2021/12/31 16:59:19;;;;;;;22.67;13.27;;;9.90;99.90;;;;;;10468494;28;20201;-82
2021/12/31 17:04:42;;;;;;;10.17;4.47;;;9.90;99.90;;;;;;10440614;28;20456;-82
2021/12/31 17:10:05;;;;;;;4.37;2.73;;;9.90;99.90;;;;;;10441062;28;20360;-82
2021/12/31 17:15:27;;;;;;;4.47;2.63;;;9.80;99.90;;;;;;10426490;28;20226;-82
2021/12/31 17:20:52;;;;;;;7.23;4.43;;;9.80;99.90;;;;;;10426667;28;20194;-82
2021/12/31 17:26:14;;;;;;;10.00;4.50;;;9.80;99.90;;;;;;10439978;28;20540;-82
2021/12/31 17:31:36;;;;;;;5.83;2.77;;;9.70;99.90;;;;;;10441218;28;20216;-82
2021/12/31 17:36:58;;;;;;;7.23;2.90;;;9.60;99.90;;;;;;10481340;28;20201;-82
2021/12/31 17:42:21;;;;;;;3.23;1.70;;;9.60;99.90;;;;;;10466520;28;20232;-82
2021/12/31 17:47:43;;;;;;;3.40;1.80;;;9.50;99.90;;;;;;10480098;28;20230;-82
2021/12/31 17:53:05;;;;;;;2.00;1.33;;;9.50;99.90;;;;;;10466357;28;20202;-82
2021/12/31 17:58:27;;;;;;;4.73;1.83;;;9.40;99.90;;;;;;10479858;28;20202;-82
2021/12/31 18:03:49;;;;;;;2.83;1.67;;;9.40;99.90;;;;;;10432973;28;20228;-82
2021/12/31 18:09:11;;;;;;;4.37;2.23;;;9.40;99.90;;;;;;10410847;28;20199;-82
2021/12/31 18:14:33;;;;;;;4.77;2.43;;;9.40;99.90;;;;;;10424139;28;20205;-82
2021/12/31 18:19:55;;;;;;;5.37;2.93;;;9.30;99.90;;;;;;10410054;28;20505;-82
2021/12/31 18:25:17;;;;;;;6.13;3.83;;;9.20;99.90;;;;;;10437645;28;20226;-82
2021/12/31 18:30:39;;;;;;;3.80;2.87;;;9.20;99.90;;;;;;10432707;28;20376;-81
2021/12/31 18:36:01;;;;;;;2.67;1.40;;;9.20;99.90;;;;;;10478751;28;20208;-82
2021/12/31 18:41:23;;;;;;;6.57;2.00;;;9.10;99.90;;;;;;10464273;28;20199;-82
2021/12/31 18:46:55;;;;;;;2.30;2.07;;;9.10;99.90;;;;;;10463946;28;20281;-82
2021/12/31 18:52:17;;;;;;;4.10;2.77;;;8.90;99.90;;;;;;10436831;28;20229;-82
2021/12/31 18:57:39;;;;;;;3.40;2.00;;;8.90;99.90;;;;;;10422882;28;20222;-82
2021/12/31 19:03:01;;;;;;;5.67;3.10;;;8.90;99.90;;;;;;10423083;28;20422;-82
2021/12/31 19:08:23;;;;;;;5.50;2.83;;;8.90;99.90;;;;;;10422416;28;20198;-82
2021/12/31 19:13:45;;;;;;;2.70;1.90;;;8.80;99.90;;;;;;10422318;28;20196;-82
2021/12/31 19:19:07;;;;;;;4.50;2.13;;;8.80;99.90;;;;;;10408658;28;20206;-83
2021/12/31 19:24:29;;;;;;;7.43;5.23;;;8.70;99.90;;;;;;10408218;28;20249;-82
2021/12/31 19:29:54;;;;;;;5.90;2.50;;;8.70;99.90;;;;;;10440018;28;20492;-82
2021/12/31 19:35:16;;;;;;;21.07;17.20;;;8.70;99.90;;;;;;10442595;28;20240;-82
2021/12/31 19:40:40;;;;;;;7.83;4.13;;;8.70;99.90;;;;;;10430152;28;20386;-82
2021/12/31 19:46:01;;;;;;;7.93;4.73;;;8.70;99.90;;;;;;10430009;28;20230;-82
2021/12/31 19:51:23;;;;;;;6.87;3.80;;;8.60;99.90;;;;;;10460763;28;20229;-82
2021/12/31 19:56:45;;;;;;;12.60;10.20;;;8.60;99.90;;;;;;10471500;28;20213;-82
2021/12/31 20:02:07;;;;;;;12.30;8.47;;;8.50;99.90;;;;;;10470539;28;20221;-82
2021/12/31 20:07:30;;;;;;;9.80;6.97;;;8.50;99.90;;;;;;10456858;28;20205;-82
2021/12/31 20:12:52;;;;;;;8.23;4.93;;;8.50;99.90;;;;;;10470481;28;20197;-82
2021/12/31 20:18:14;;;;;;;15.27;8.03;;;8.50;99.90;;;;;;10470244;28;20223;-82
2021/12/31 20:23:37;;;;;;;13.83;9.23;;;8.50;99.90;;;;;;10470023;28;20300;-82
2021/12/31 20:28:59;;;;;;;7.33;4.30;;;8.50;99.90;;;;;;10469800;28;20204;-82
2021/12/31 20:34:21;;;;;;;9.50;5.07;;;8.40;99.90;;;;;;10419897;28;20244;-81
2021/12/31 20:39:43;;;;;;;9.87;6.33;;;8.40;99.90;;;;;;10414441;28;20544;-81
2021/12/31 20:45:07;;;;;;;6.80;4.50;;;8.40;99.90;;;;;;10427278;28;20232;-82
2021/12/31 20:50:30;;;;;;;5.80;3.60;;;8.30;99.90;;;;;;10465128;28;20480;-82
2021/12/31 20:55:53;;;;;;;3.10;1.47;;;8.30;99.90;;;;;;10468662;28;20200;-82
2021/12/31 21:01:15;;;;;;;2.97;1.50;;;8.30;99.90;;;;;;10482437;28;20260;-82
2021/12/31 21:06:37;;;;;;;2.33;1.93;;;8.30;99.90;;;;;;10482298;28;20294;-80
2021/12/31 21:12:00;;;;;;;7.47;5.57;;;8.20;99.90;;;;;;10468200;28;20532;-80
2021/12/31 21:17:22;;;;;;;9.60;7.27;;;8.10;99.90;;;;;;10481850;28;20201;-81
2021/12/31 21:22:44;;;;;;;6.63;4.57;;;8.10;99.90;;;;;;10453859;28;20274;-80
2021/12/31 21:28:09;;;;;;;17.63;13.30;;;8.10;99.90;;;;;;10481748;28;20189;-79
2021/12/31 21:33:30;;;;;;;12.27;8.10;;;8.00;99.90;;;;;;10454434;28;20207;-81
2021/12/31 21:38:53;;;;;;;5.60;4.03;;;8.00;99.90;;;;;;10467119;28;20272;-82
2021/12/31 21:44:16;;;;;;;9.33;6.03;;;8.00;99.90;;;;;;10467025;28;20224;-82
2021/12/31 21:49:38;;;;;;;9.43;5.43;;;8.00;99.90;;;;;;10449578;28;20283;-81
2021/12/31 21:55:01;;;;;;;6.23;3.40;;;7.90;99.90;;;;;;10424244;28;20562;-81
2021/12/31 22:00:24;;;;;;;6.90;3.30;;;7.90;99.90;;;;;;10438483;28;20188;-82
2021/12/31 22:05:47;;;;;;;5.23;3.20;;;7.90;99.90;;;;;;10466134;28;20224;-80
2021/12/31 22:11:09;;;;;;;3.93;2.87;;;7.80;99.90;;;;;;10466017;28;20201;-82
2021/12/31 22:16:32;;;;;;;4.10;2.23;;;7.70;99.90;;;;;;10465244;28;20200;-82
2021/12/31 22:21:55;;;;;;;5.20;2.57;;;7.70;99.90;;;;;;10479160;28;20205;-82
2021/12/31 22:27:17;;;;;;;3.40;2.17;;;7.70;99.90;;;;;;10479378;28;20199;-82
2021/12/31 22:32:39;;;;;;;3.63;2.10;;;7.70;99.90;;;;;;10464390;28;20253;-82
2021/12/31 22:38:01;;;;;;;2.33;1.60;;;7.80;99.90;;;;;;10464761;28;20203;-82
2021/12/31 22:43:24;;;;;;;4.53;1.53;;;7.70;99.90;;;;;;10464339;28;20224;-82
2021/12/31 22:48:46;;;;;;;3.80;1.90;;;7.60;99.90;;;;;;10467807;28;20237;-81
2021/12/31 22:54:08;;;;;;;3.03;1.60;;;7.60;99.90;;;;;;10422815;28;20226;-81
2021/12/31 22:59:32;;;;;;;5.37;3.40;;;7.60;99.90;;;;;;10414845;28;20396;-82
2021/12/31 23:04:54;;;;;;;57.10;39.50;;;7.60;99.90;;;;;;10477699;28;20519;-82
2021/12/31 23:10:16;;;;;;;70.83;48.70;;;7.50;99.90;;;;;;10477678;28;20199;-82
2021/12/31 23:15:38;;;;;;;43.80;32.53;;;7.60;99.90;;;;;;10463419;28;20214;-82
2021/12/31 23:21:00;;;;;;;18.77;12.90;;;7.60;99.90;;;;;;10463325;28;20394;-82
2021/12/31 23:26:22;;;;;;;7.03;3.30;;;7.60;99.90;;;;;;10463311;28;20228;-82
2021/12/31 23:31:44;;;;;;;7.53;2.97;;;7.60;99.90;;;;;;10462805;28;20205;-82
2021/12/31 23:37:07;;;;;;;4.07;2.77;;;7.60;99.90;;;;;;10477225;28;20440;-82
2021/12/31 23:42:38;;;;;;;6.03;3.37;;;7.60;99.90;;;;;;10476805;28;20409;-83
2021/12/31 23:48:00;;;;;;;5.27;3.90;;;7.60;99.90;;;;;;10462959;28;20230;-82
2021/12/31 23:53:22;;;;;;;6.47;2.70;;;7.60;99.90;;;;;;10476923;28;20246;-83
2021/12/31 23:58:44;;;;;;;3.13;2.17;;;7.60;99.90;;;;;;10476651;28;20373;-82
